Time;durP1;ratioP1;P1;durP2;ratioP2;P2;SDS_P1;SDS_P2;PMS_P1;PMS_P2;Temp;Humidity;BMP_temperature;BMP_pressure;BME280_temperature;BME280_humidity;BME280_pressure;Samples;Min_cycle;Max_cycle;Signal;HPM_P1;HPM_P2
2022/07/04 07:30:58;;;;;;;2.30;1.60;;;;;;;22.11;63.86;99291.09;5128291;27;20341;-76
2022/07/04 07:33:24;;;;;;;1.77;1.10;;;;;;;22.31;62.22;99293.34;5127999;27;20486;-76
2022/07/04 07:35:51;;;;;;;1.67;1.23;;;;;;;22.16;60.85;99268.19;5129164;27;20138;-77
2022/07/04 07:38:17;;;;;;;4.50;1.50;;;;;;;22.23;61.36;99285.44;5128314;27;20047;-76
2022/07/04 07:40:44;;;;;;;2.03;1.30;;;;;;;22.37;60.05;99274.81;5128992;27;20134;-76
2022/07/04 07:43:10;;;;;;;2.08;1.42;;;;;;;22.08;62.67;99283.31;5125583;27;20051;-77
2022/07/04 07:45:37;;;;;;;2.58;1.30;;;;;;;21.87;62.70;99285.81;5124813;27;20252;-76
2022/07/04 07:48:06;;;;;;;3.60;1.40;;;;;;;21.96;60.06;99293.69;5125075;28;20047;-77
2022/07/04 07:50:32;;;;;;;3.20;1.50;;;;;;;21.79;61.80;99277.97;5125610;27;20051;-76
2022/07/04 07:52:59;;;;;;;3.63;1.45;;;;;;;21.72;63.42;99272.63;5127366;28;20058;-76
2022/07/04 07:55:25;;;;;;;2.03;1.52;;;;;;;21.76;64.13;99288.72;5128458;27;20043;-77
2022/07/04 07:57:52;;;;;;;4.25;1.30;;;;;;;21.81;63.29;99280.47;5128486;27;20062;-76
2022/07/04 08:00:19;;;;;;;3.28;1.45;;;;;;;21.72;62.47;99278.19;5128073;27;20055;-76
2022/07/04 08:05:30;;;;;;;4.97;1.23;;;;;;;22.00;60.04;99275.47;5118596;27;20155;-76
2022/07/04 08:07:59;;;;;;;4.70;1.20;;;;;;;22.16;60.24;99282.03;5128129;27;20390;-76
2022/07/04 08:10:26;;;;;;;2.30;1.35;;;;;;;22.15;60.10;99274.84;5127736;27;20455;-77
2022/07/04 08:12:52;;;;;;;2.50;1.38;;;;;;;22.22;59.30;99275.44;5119304;27;20055;-76
2022/07/04 08:15:19;;;;;;;6.93;1.63;;;;;;;22.04;59.33;99260.88;5126927;27;20081;-76
2022/07/04 08:17:46;;;;;;;3.78;1.52;;;;;;;21.85;61.84;99279.72;5126212;28;20055;-77
2022/07/04 08:20:13;;;;;;;8.65;1.80;;;;;;;21.95;61.86;99278.16;5124909;27;20039;-77
2022/07/04 08:22:40;;;;;;;5.78;1.50;;;;;;;21.97;60.60;99254.69;5127120;27;20520;-77
2022/07/04 08:25:08;;;;;;;5.75;1.58;;;;;;;22.15;59.77;99245.22;5127870;27;20047;-76
2022/07/04 08:27:34;;;;;;;7.70;1.85;;;;;;;22.09;60.86;99258.16;5127735;27;20058;-76
2022/07/04 08:30:01;;;;;;;7.72;1.60;;;;;;;21.87;60.44;99252.59;5127276;27;20050;-76
2022/07/04 08:32:28;;;;;;;2.60;1.17;;;;;;;22.35;59.32;99261.25;5122978;27;20482;-76
2022/07/04 08:34:54;;;;;;;4.72;1.58;;;;;;;22.42;59.44;99238.91;5123095;28;20062;-77
2022/07/04 08:37:21;;;;;;;4.70;1.50;;;;;;;22.66;58.16;99235.78;5127677;27;20074;-77
2022/07/04 08:39:49;;;;;;;5.03;1.58;;;;;;;22.54;58.11;99255.38;5127705;27;20051;-76
2022/07/04 08:42:18;;;;;;;3.38;1.45;;;;;;;22.15;58.71;99247.16;5113373;27;20490;-76
2022/07/04 08:44:48;;;;;;;3.92;1.63;;;;;;;22.53;58.89;99246.19;5113608;28;20052;-76
2022/07/04 08:47:18;;;;;;;5.43;1.50;;;;;;;22.54;57.07;99244.28;5108372;28;20044;-77
2022/07/04 08:49:50;;;;;;;5.15;1.48;;;;;;;22.72;55.18;99249.44;5112036;28;20431;-76
2022/07/04 08:52:26;;;;;;;3.42;1.75;;;;;;;22.89;56.07;99251.25;5112970;28;20059;-77
2022/07/04 09:00:25;;;;;;;4.68;1.77;;;;;;;23.46;54.62;99247.81;5113460;28;20539;-76
2022/07/04 09:02:52;;;;;;;9.60;1.20;;;;;;;23.30;53.79;99235.78;5108591;28;20422;-77
2022/07/04 09:05:19;;;;;;;3.25;1.50;;;;;;;23.72;54.94;99255.44;5111454;28;20052;-76
2022/07/04 09:07:46;;;;;;;3.72;1.50;;;;;;;23.78;54.50;99255.19;5113389;28;20063;-76
2022/07/04 09:10:15;;;;;;;6.85;1.38;;;;;;;23.56;56.29;99251.75;5113067;28;20048;-77
2022/07/04 09:12:42;;;;;;;4.75;1.20;;;;;;;23.92;54.12;99261.16;5112538;28;20049;-77
2022/07/04 09:15:09;;;;;;;2.35;1.20;;;;;;;24.17;54.18;99260.38;5112989;28;20055;-77
2022/07/04 09:17:36;;;;;;;2.50;1.40;;;;;;;24.37;53.19;99273.53;5109820;28;20048;-77
2022/07/04 09:20:15;;;;;;;2.53;1.30;;;;;;;24.46;52.05;99270.19;5105346;28;20513;-77
2022/07/04 09:22:42;;;;;;;3.33;1.23;;;;;;;24.65;52.24;99265.81;5112376;28;20400;-77
2022/07/04 09:25:12;;;;;;;5.78;1.50;;;;;;;24.92;53.48;99254.44;5113066;28;20048;-77
2022/07/04 09:27:44;;;;;;;6.78;1.77;;;;;;;25.12;50.93;99265.88;5112666;28;20059;-77
2022/07/04 09:30:12;;;;;;;4.18;1.50;;;;;;;24.90;51.08;99262.25;5112382;28;20047;-77
2022/07/04 09:32:40;;;;;;;4.50;1.23;;;;;;;24.64;51.98;99263.31;5110100;28;20047;-77
2022/07/04 09:35:08;;;;;;;6.38;1.63;;;;;;;24.84;51.84;99276.41;5105713;28;20048;-77
2022/07/04 09:37:36;;;;;;;9.30;1.52;;;;;;;24.64;50.82;99266.94;5112293;28;20048;-76
2022/07/04 09:40:05;;;;;;;3.05;1.23;;;;;;;24.81;51.27;99263.06;5112597;28;20043;-75
2022/07/04 09:42:36;;;;;;;4.80;1.35;;;;;;;24.65;49.61;99271.38;5111700;27;20047;-75
2022/07/04 09:45:08;;;;;;;2.00;1.17;;;;;;;24.60;48.82;99265.84;5112550;28;20482;-76
2022/07/04 09:47:36;;;;;;;4.25;1.30;;;;;;;25.14;48.11;99266.41;5112196;28;20521;-77
2022/07/04 09:50:04;;;;;;;3.03;1.13;;;;;;;25.40;47.91;99283.97;5110286;28;20112;-77
2022/07/04 09:52:32;;;;;;;4.50;1.35;;;;;;;25.24;47.65;99267.22;5107623;28;20048;-77
2022/07/04 09:54:59;;;;;;;7.20;1.42;;;;;;;25.56;49.05;99277.25;5112323;28;20559;-77
2022/07/04 09:57:26;;;;;;;10.15;1.60;;;;;;;25.26;47.05;99275.28;5111972;28;20097;-79
2022/07/04 09:59:53;;;;;;;6.85;1.55;;;;;;;25.46;46.45;99268.91;5112274;27;20137;-77
2022/07/04 10:02:21;;;;;;;4.43;1.05;;;;;;;25.88;46.65;99287.19;5111519;28;20413;-78
2022/07/04 10:04:49;;;;;;;6.45;1.35;;;;;;;26.02;45.66;99275.50;5108476;27;20070;-77
2022/07/04 10:07:32;;;;;;;2.50;1.35;;;;;;;26.01;46.07;99271.84;5111615;28;20056;-78
2022/07/04 10:09:59;;;;;;;3.78;1.30;;;;;;;26.01;43.89;99277.41;5110386;27;20047;-77
2022/07/04 10:12:26;;;;;;;3.05;1.30;;;;;;;25.87;43.34;99290.25;5093612;28;20052;-77
2022/07/04 10:14:55;;;;;;;1.70;0.88;;;;;;;25.90;43.19;99284.13;5111914;28;20555;-77
2022/07/04 10:17:22;;;;;;;3.42;1.45;;;;;;;25.93;44.29;99278.00;5110058;28;20509;-77
2022/07/04 10:19:50;;;;;;;6.35;1.40;;;;;;;26.24;44.45;99272.31;5111757;28;20502;-77
2022/07/04 10:22:18;;;;;;;2.80;1.13;;;;;;;26.59;44.04;99279.66;5111328;28;20559;-77
2022/07/04 10:24:44;;;;;;;8.10;1.45;;;;;;;26.50;44.68;99276.63;5112452;28;20104;-77
2022/07/04 10:27:12;;;;;;;7.03;1.13;;;;;;;26.50;44.54;99286.94;5109752;27;20055;-77
2022/07/04 10:29:39;;;;;;;8.68;1.30;;;;;;;26.58;43.74;99274.34;5105073;28;20062;-77
2022/07/04 10:32:08;;;;;;;5.38;1.38;;;;;;;26.44;43.30;99297.28;5111036;28;20073;-77
2022/07/04 10:34:41;;;;;;;8.05;1.10;;;;;;;26.28;43.43;99281.75;5111590;28;20063;-77
2022/07/04 10:37:07;;;;;;;3.70;1.13;;;;;;;26.44;43.84;99286.13;5111952;28;20044;-77
2022/07/04 10:39:34;;;;;;;6.35;1.35;;;;;;;26.42;45.76;99279.19;5111014;28;20521;-77
2022/07/04 10:42:01;;;;;;;2.72;0.98;;;;;;;26.35;44.51;99290.66;5109344;28;20427;-77
2022/07/04 10:44:35;;;;;;;2.20;1.10;;;;;;;26.27;44.45;99283.72;5109907;28;21269;-76
2022/07/04 10:47:01;;;;;;;2.78;1.27;;;;;;;26.61;45.42;99268.22;5110452;27;20104;-76
2022/07/04 10:49:29;;;;;;;4.13;1.20;;;;;;;26.89;43.45;99271.38;5111515;28;20417;-77
2022/07/04 10:52:09;;;;;;;1.83;1.00;;;;;;;26.46;42.49;99278.31;5111775;28;20490;-77
2022/07/04 10:54:38;;;;;;;5.47;1.20;;;;;;;26.57;41.29;99290.25;5111335;28;20402;-78
2022/07/04 10:57:21;;;;;;;6.68;1.10;;;;;;;26.39;42.45;99291.75;5108811;28;20077;-78
2022/07/04 11:00:05;;;;;;;3.50;1.08;;;;;;;26.64;42.73;99271.25;5105156;28;20091;-77
2022/07/04 11:02:33;;;;;;;3.38;0.98;;;;;;;27.14;42.16;99265.59;5107341;28;20487;-78
2022/07/04 11:05:02;;;;;;;4.93;1.20;;;;;;;27.43;42.67;99277.91;5099043;28;20051;-77
2022/07/04 11:07:59;;;;;;;4.78;1.40;;;;;;;27.17;42.52;99269.75;5103314;28;20047;-77
2022/07/04 11:10:26;;;;;;;4.20;1.30;;;;;;;27.57;42.24;99266.91;5087712;28;20051;-78
2022/07/04 11:13:20;;;;;;;4.57;1.27;;;;;;;27.42;41.43;99274.31;5105638;28;20047;-77
2022/07/04 11:16:07;;;;;;;1.65;1.02;;;;;;;27.79;43.00;99253.25;5103864;28;20134;-77
2022/07/04 11:18:52;;;;;;;6.43;1.27;;;;;;;27.64;40.13;99262.66;5103534;28;20044;-78
2022/07/04 11:21:21;;;;;;;3.97;1.10;;;;;;;27.82;40.41;99271.38;5098359;28;20051;-77
2022/07/04 11:23:53;;;;;;;3.22;1.00;;;;;;;27.54;40.70;99254.38;5110347;28;20490;-78
2022/07/04 11:26:21;;;;;;;3.85;1.00;;;;;;;27.33;40.19;99264.91;5101033;28;20102;-78
2022/07/04 11:28:47;;;;;;;6.60;1.17;;;;;;;27.75;42.66;99251.34;5108864;28;20081;-78
2022/07/04 11:31:14;;;;;;;6.35;1.05;;;;;;;28.13;40.53;99248.69;5109097;28;20043;-79
2022/07/04 11:33:42;;;;;;;3.65;0.90;;;;;;;28.24;39.38;99239.03;5102651;28;20043;-79
2022/07/04 11:36:10;;;;;;;4.07;1.10;;;;;;;28.16;38.63;99243.31;5098795;28;20897;-78
2022/07/04 11:38:47;;;;;;;2.17;1.13;;;;;;;27.87;39.16;99233.03;5100386;28;20043;-78
2022/07/04 11:46:47;;;;;;;10.55;1.52;;;;;;;28.34;39.37;99210.09;5095121;28;20427;-78
2022/07/04 11:49:14;;;;;;;4.05;1.05;;;;;;;28.16;37.96;99220.97;5104790;28;20044;-79
2022/07/04 11:51:45;;;;;;;3.03;1.20;;;;;;;28.42;39.33;99209.41;5099834;28;20052;-78
2022/07/04 11:54:11;;;;;;;8.48;1.17;;;;;;;28.32;38.71;99207.63;5092710;28;20051;-78
2022/07/04 11:56:39;;;;;;;4.70;1.08;;;;;;;27.98;38.14;99216.19;5100388;28;20044;-79
2022/07/04 11:59:14;;;;;;;2.38;0.90;;;;;;;28.53;38.06;99193.31;5104643;28;20054;-78
2022/07/04 12:01:42;;;;;;;4.72;1.42;;;;;;;28.65;37.94;99198.47;5112523;28;20055;-79
2022/07/04 12:04:13;;;;;;;10.13;1.23;;;;;;;28.77;38.34;99193.22;5108273;28;20052;-79
2022/07/04 12:06:40;;;;;;;6.32;1.00;;;;;;;28.68;37.94;99206.25;5104964;28;20743;-79
2022/07/04 12:09:07;;;;;;;1.25;1.10;;;;;;;28.38;37.97;99205.59;5106875;28;20044;-78
2022/07/04 12:11:53;;;;;;;1.15;0.85;;;;;;;28.47;40.35;99197.31;5104398;28;20051;-78
2022/07/04 12:14:19;;;;;;;4.57;1.38;;;;;;;28.37;39.66;99192.72;5109105;28;20120;-79
2022/07/04 12:16:47;;;;;;;5.57;1.17;;;;;;;27.92;40.23;99195.00;5110447;28;20047;-78
2022/07/04 12:19:14;;;;;;;3.78;1.10;;;;;;;28.18;40.22;99189.91;5114716;28;20108;-78
2022/07/04 12:21:43;;;;;;;5.07;1.23;;;;;;;28.31;39.38;99182.75;5111532;28;20052;-78
2022/07/04 12:24:10;;;;;;;2.28;1.10;;;;;;;28.50;37.60;99169.59;5112805;28;20471;-78
2022/07/04 12:26:46;;;;;;;4.15;1.38;;;;;;;28.36;38.78;99177.91;5114271;28;20047;-78
2022/07/04 12:29:21;;;;;;;6.07;1.42;;;;;;;28.60;38.58;99163.88;5113736;28;20071;-78
2022/07/04 12:31:52;;;;;;;5.05;1.17;;;;;;;28.37;39.18;99148.81;5113852;28;20062;-78
2022/07/04 12:34:19;;;;;;;2.42;1.10;;;;;;;28.88;38.85;99158.38;5113595;28;20048;-78
2022/07/04 12:36:50;;;;;;;2.60;1.33;;;;;;;29.18;39.51;99156.16;5105533;28;20047;-78
2022/07/04 12:39:28;;;;;;;4.97;1.27;;;;;;;29.22;37.39;99146.03;5110068;28;20063;-78
2022/07/04 12:42:05;;;;;;;5.45;1.20;;;;;;;29.52;37.23;99140.13;5109221;28;20044;-78
2022/07/04 12:44:33;;;;;;;3.92;1.60;;;;;;;29.21;37.87;99149.16;5113631;28;20058;-78
2022/07/04 12:47:00;;;;;;;1.95;0.82;;;;;;;29.16;37.88;99141.63;5103450;28;20055;-79
2022/07/04 12:49:26;;;;;;;2.20;1.00;;;;;;;29.01;37.57;99137.16;5110039;28;20075;-79
2022/07/04 12:52:04;;;;;;;8.85;1.10;;;;;;;29.02;38.17;99141.59;5104155;28;20047;-79
2022/07/04 12:54:30;;;;;;;4.90;1.20;;;;;;;28.30;38.92;99120.41;5101110;28;20219;-79
2022/07/04 12:57:05;;;;;;;2.08;1.10;;;;;;;28.48;39.25;99127.13;5102145;28;20089;-79
2022/07/04 12:59:33;;;;;;;10.15;1.10;;;;;;;28.65;39.35;99131.34;5101961;28;20556;-78
2022/07/04 13:02:00;;;;;;;2.75;1.00;;;;;;;28.73;39.44;99120.31;5101967;28;20069;-79
2022/07/04 13:04:27;;;;;;;3.47;0.90;;;;;;;29.16;38.11;99132.41;5100424;28;20055;-79
2022/07/04 13:06:54;;;;;;;9.82;1.30;;;;;;;29.20;38.15;99111.88;5101268;28;20392;-78
2022/07/04 13:09:21;;;;;;;3.70;0.95;;;;;;;28.89;38.13;99120.00;5100278;28;20051;-79
2022/07/04 13:14:33;;;;;;;1.88;1.00;;;;;;;28.08;41.04;99124.66;5105593;28;20101;-78
2022/07/04 13:17:00;;;;;;;2.05;1.00;;;;;;;28.05;40.40;99110.50;5099315;28;20058;-78
2022/07/04 13:19:26;;;;;;;2.10;1.00;;;;;;;27.80;42.15;99104.09;5104126;28;20047;-78
2022/07/04 13:21:54;;;;;;;6.75;1.20;;;;;;;28.11;41.66;99102.84;5103412;28;20407;-78
2022/07/04 13:24:22;;;;;;;6.30;1.58;;;;;;;28.70;41.00;99097.72;5111969;28;20043;-78
2022/07/04 13:26:48;;;;;;;2.97;1.00;;;;;;;28.87;39.28;99097.94;5112689;28;20547;-79
2022/07/04 13:29:15;;;;;;;2.20;1.05;;;;;;;28.63;40.00;99098.09;5111702;28;20051;-78
2022/07/04 13:31:42;;;;;;;5.60;1.30;;;;;;;27.62;41.79;99097.34;5107407;28;20050;-78
2022/07/04 13:34:09;;;;;;;4.35;1.02;;;;;;;27.06;42.78;99095.22;5111656;28;20063;-79
2022/07/04 13:36:36;;;;;;;2.25;1.15;;;;;;;27.21;42.35;99097.84;5113002;28;20486;-79
2022/07/04 13:39:03;;;;;;;10.77;1.27;;;;;;;27.81;40.55;99096.56;5110268;28;20066;-79
2022/07/04 13:41:31;;;;;;;5.07;1.38;;;;;;;28.13;41.48;99093.03;5098849;28;20139;-78
2022/07/04 13:43:58;;;;;;;6.60;1.08;;;;;;;28.17;39.90;99088.50;5107698;28;20402;-79
2022/07/04 13:46:24;;;;;;;3.63;1.00;;;;;;;28.20;40.03;99071.13;5106466;28;20048;-79
2022/07/04 13:48:52;;;;;;;2.72;1.13;;;;;;;28.21;40.72;99077.53;5101270;28;20547;-77
2022/07/04 13:51:19;;;;;;;5.15;1.30;;;;;;;28.60;40.00;99081.94;5111689;28;20158;-78
2022/07/04 13:53:45;;;;;;;2.42;1.00;;;;;;;28.77;39.26;99086.94;5111607;28;20051;-79
2022/07/04 13:56:15;;;;;;;4.45;0.90;;;;;;;28.99;37.51;99072.25;5112672;27;20044;-78
2022/07/04 13:58:42;;;;;;;2.67;0.90;;;;;;;28.56;38.02;99086.44;5111676;28;20051;-79
2022/07/04 14:01:08;;;;;;;1.80;1.13;;;;;;;28.29;38.16;99079.66;5110263;28;20062;-79
2022/07/04 14:03:35;;;;;;;3.63;1.00;;;;;;;28.84;37.68;99069.78;5110107;28;20044;-78
2022/07/04 14:06:03;;;;;;;3.88;1.20;;;;;;;28.69;37.33;99074.50;5108171;28;20054;-79
2022/07/04 14:08:29;;;;;;;2.90;1.00;;;;;;;28.77;37.61;99082.19;5111330;27;20486;-78
2022/07/04 14:10:56;;;;;;;5.53;1.25;;;;;;;29.04;37.20;99071.34;5112072;28;20452;-79
2022/07/04 14:13:22;;;;;;;5.60;1.00;;;;;;;29.26;37.20;99091.06;5106051;28;20054;-79
2022/07/04 14:15:49;;;;;;;1.85;1.00;;;;;;;28.74;38.26;99081.97;5099647;28;20518;-78
2022/07/04 14:18:15;;;;;;;4.15;1.30;;;;;;;28.15;38.81;99075.94;5106137;28;20402;-79
2022/07/04 14:20:43;;;;;;;2.53;1.40;;;;;;;28.05;38.65;99079.75;5111750;28;20046;-79
2022/07/04 14:23:11;;;;;;;3.63;0.93;;;;;;;28.57;38.07;99083.34;5110879;28;20142;-79
2022/07/04 14:25:37;;;;;;;4.57;1.23;;;;;;;28.49;37.56;99061.69;5112012;28;20411;-79
2022/07/04 14:28:04;;;;;;;3.80;1.13;;;;;;;28.57;37.47;99077.75;5110734;28;20050;-79
2022/07/04 14:30:31;;;;;;;4.07;1.50;;;;;;;28.68;38.21;99074.81;5107238;28;20059;-79
2022/07/04 14:32:58;;;;;;;2.55;1.10;;;;;;;28.47;38.17;99072.34;5102782;28;20047;-79
2022/07/04 14:35:24;;;;;;;3.58;1.10;;;;;;;28.83;38.28;99062.50;5111065;28;20047;-78
2022/07/04 14:37:54;;;;;;;6.43;1.05;;;;;;;28.45;37.44;99068.19;5110381;28;20062;-79
2022/07/04 14:40:22;;;;;;;2.63;1.00;;;;;;;28.82;37.97;99066.47;5111301;28;20098;-79
2022/07/04 14:42:48;;;;;;;2.30;1.13;;;;;;;28.91;38.46;99071.00;5108935;28;20476;-78
2022/07/04 14:45:15;;;;;;;2.22;0.77;;;;;;;28.99;38.08;99065.84;5110162;28;20567;-79
2022/07/04 14:47:42;;;;;;;1.60;1.38;;;;;;;28.48;37.45;99065.59;5110618;28;20047;-79
2022/07/04 14:50:09;;;;;;;2.65;1.30;;;;;;;28.12;38.50;99068.19;5109483;28;20047;-78
2022/07/04 14:52:36;;;;;;;1.77;0.95;;;;;;;28.39;38.97;99067.44;5109712;28;20385;-79
2022/07/04 14:55:02;;;;;;;3.80;1.10;;;;;;;28.33;38.11;99057.50;5090600;28;20400;-79
2022/07/04 14:57:30;;;;;;;6.38;1.20;;;;;;;28.56;38.03;99070.50;5099062;28;20052;-78
2022/07/04 14:59:57;;;;;;;2.13;0.90;;;;;;;28.77;37.30;99070.16;5102885;28;20048;-79
2022/07/04 15:02:23;;;;;;;1.50;0.90;;;;;;;28.66;37.43;99054.72;5110183;28;20051;-78
2022/07/04 15:04:50;;;;;;;4.28;1.92;;;;;;;28.86;36.37;99048.75;5111162;28;20051;-79
2022/07/04 15:07:17;;;;;;;2.42;1.00;;;;;;;28.92;36.55;99041.06;5109220;28;20483;-79
2022/07/04 15:09:43;;;;;;;1.23;0.98;;;;;;;28.92;35.47;99032.66;5110913;28;20043;-79
2022/07/04 15:12:10;;;;;;;2.70;0.98;;;;;;;28.64;34.90;99052.22;5107088;28;20439;-79
2022/07/04 15:14:38;;;;;;;2.42;0.90;;;;;;;28.66;36.41;99035.97;5111081;28;20058;-77
2022/07/04 15:17:04;;;;;;;4.00;1.35;;;;;;;28.86;35.74;99009.59;5108480;28;20368;-78
2022/07/04 15:24:10;;;;;;;1.95;1.00;;;;;;;29.17;33.67;99030.50;5111241;28;20047;-78
2022/07/04 15:25:01;;;;;;;1.17;0.90;;;;;;;28.69;33.32;99037.31;5110865;28;20199;-78
2022/07/04 15:27:28;;;;;;;1.63;1.05;;;;;;;28.60;33.38;99035.25;5105815;28;20054;-79
2022/07/04 15:29:56;;;;;;;4.55;0.90;;;;;;;28.51;33.64;99028.66;5110320;28;20498;-79
2022/07/04 15:32:22;;;;;;;2.78;0.80;;;;;;;28.42;33.86;99045.31;5110246;28;20044;-78
2022/07/04 15:34:49;;;;;;;1.60;0.98;;;;;;;28.26;34.31;99046.72;5110926;28;20052;-78
2022/07/04 15:37:16;;;;;;;4.10;1.00;;;;;;;28.07;34.16;99025.22;5110023;28;20051;-79
2022/07/04 15:39:42;;;;;;;1.70;1.00;;;;;;;28.23;33.05;99044.53;5098149;28;20054;-79
2022/07/04 15:42:09;;;;;;;2.63;0.98;;;;;;;28.64;32.90;99038.25;5108211;28;20043;-79
2022/07/04 15:44:35;;;;;;;2.28;1.20;;;;;;;28.65;31.40;99031.53;5108269;28;20048;-79
2022/07/04 15:47:09;;;;;;;3.05;0.73;;;;;;;29.05;30.81;99059.00;5107557;28;20058;-79
2022/07/04 15:49:38;;;;;;;2.63;0.82;;;;;;;28.92;29.77;99057.84;5099633;28;20044;-78
2022/07/04 15:52:05;;;;;;;2.60;1.10;;;;;;;29.05;29.31;99059.81;5111930;28;20088;-80
2022/07/04 15:54:32;;;;;;;1.08;0.73;;;;;;;28.98;28.98;99069.78;5116106;28;20073;-78
2022/07/04 15:56:59;;;;;;;3.13;0.82;;;;;;;28.80;28.79;99041.59;5098245;27;20403;-79
2022/07/04 15:59:25;;;;;;;2.25;0.77;;;;;;;28.73;29.38;99049.56;5094243;28;20051;-78
2022/07/04 16:01:52;;;;;;;1.45;0.52;;;;;;;28.66;29.08;99049.13;5104442;28;20047;-80
2022/07/04 16:04:20;;;;;;;4.30;0.90;;;;;;;28.42;29.38;99041.69;5112022;27;20209;-78
2022/07/04 16:06:47;;;;;;;3.10;1.20;;;;;;;28.37;30.00;99045.41;5114667;28;20075;-79
2022/07/04 16:09:14;;;;;;;3.70;0.77;;;;;;;28.18;29.59;99033.41;5111037;28;20129;-79
2022/07/04 16:11:41;;;;;;;1.08;0.70;;;;;;;28.56;29.83;99033.31;5114321;28;20047;-79
2022/07/04 16:14:07;;;;;;;1.85;0.60;;;;;;;28.67;29.15;99034.00;5113746;28;20407;-79
2022/07/04 16:16:35;;;;;;;0.60;0.60;;;;;;;28.59;28.75;99018.75;5114316;28;20490;-79
2022/07/04 16:19:03;;;;;;;2.45;0.70;;;;;;;28.72;27.92;99028.31;5112115;28;20044;-78
2022/07/04 16:21:31;;;;;;;1.23;0.70;;;;;;;28.84;27.71;99022.22;5114196;28;20108;-79
2022/07/04 16:23:58;;;;;;;1.27;0.70;;;;;;;28.34;28.03;99018.06;5110920;28;20047;-79
2022/07/04 16:26:24;;;;;;;2.05;0.60;;;;;;;28.35;27.27;99016.94;5112582;28;20043;-79
2022/07/04 16:28:51;;;;;;;4.78;0.70;;;;;;;28.23;28.56;99016.59;5113135;28;20054;-78
2022/07/04 16:31:19;;;;;;;1.15;0.60;;;;;;;28.29;29.04;98995.78;5114086;28;20047;-78
2022/07/04 16:33:46;;;;;;;0.40;0.40;;;;;;;28.64;28.75;99003.88;5112848;27;20060;-79
2022/07/04 16:36:12;;;;;;;4.72;0.73;;;;;;;28.35;27.26;98988.97;5112038;28;20141;-79
2022/07/04 16:38:40;;;;;;;0.90;0.60;;;;;;;28.24;28.21;99005.09;5111137;28;20122;-78
2022/07/04 16:41:07;;;;;;;1.45;0.60;;;;;;;28.06;28.39;99014.34;5113918;28;20051;-79
2022/07/04 16:43:33;;;;;;;4.20;1.02;;;;;;;27.98;29.38;99024.25;5113207;28;20048;-78
2022/07/04 16:46:00;;;;;;;1.52;0.80;;;;;;;28.03;28.93;99004.63;5113142;28;20510;-79
2022/07/04 16:48:26;;;;;;;2.90;0.70;;;;;;;28.33;28.97;99021.97;5109183;28;20122;-78
2022/07/04 16:50:53;;;;;;;3.40;0.50;;;;;;;28.42;28.59;99027.69;5092489;28;20048;-80
2022/07/04 16:53:19;;;;;;;3.95;0.88;;;;;;;28.63;28.16;99030.97;5110104;28;20403;-78
2022/07/04 16:55:49;;;;;;;3.85;0.80;;;;;;;28.56;28.27;99017.38;5099795;28;20051;-78
2022/07/04 16:58:15;;;;;;;1.50;0.70;;;;;;;28.26;28.20;99027.16;5108953;28;20047;-78
2022/07/04 17:00:42;;;;;;;0.70;0.40;;;;;;;28.25;28.67;99045.88;5110612;28;20051;-78
2022/07/04 17:03:10;;;;;;;0.88;0.60;;;;;;;28.22;29.09;99026.09;5110685;28;20055;-79
2022/07/04 17:05:36;;;;;;;1.27;0.70;;;;;;;28.39;29.23;99033.91;5099113;28;20052;-78
2022/07/04 17:08:03;;;;;;;5.72;0.77;;;;;;;28.15;29.54;99032.06;5101472;28;20051;-78
2022/07/04 17:10:30;;;;;;;2.75;0.82;;;;;;;28.31;29.28;99043.00;5106980;28;20048;-78
2022/07/04 17:12:57;;;;;;;1.58;0.60;;;;;;;28.35;29.21;99032.84;5092356;28;20483;-78
2022/07/04 17:15:24;;;;;;;4.35;0.65;;;;;;;28.31;29.72;99043.00;5110689;28;20050;-78
2022/07/04 17:17:51;;;;;;;0.77;0.60;;;;;;;27.87;30.32;99031.94;5110210;28;20056;-78
2022/07/04 17:20:17;;;;;;;1.63;0.60;;;;;;;27.55;30.76;99046.63;5107427;28;20043;-77
2022/07/04 17:22:44;;;;;;;3.17;1.13;;;;;;;27.51;30.99;99040.00;5107023;28;20040;-78
2022/07/04 17:25:10;;;;;;;1.13;0.50;;;;;;;27.38;30.51;99041.56;5105165;28;20048;-78
2022/07/04 17:27:37;;;;;;;1.45;0.70;;;;;;;27.34;31.16;99038.53;5102646;28;20482;-78
2022/07/04 17:30:06;;;;;;;4.78;0.73;;;;;;;27.33;30.89;99039.66;5108993;28;20044;-77
2022/07/04 17:32:33;;;;;;;3.10;0.93;;;;;;;27.10;31.71;99038.53;5109481;28;20054;-77
2022/07/04 17:34:59;;;;;;;2.10;0.80;;;;;;;26.98;31.71;99033.38;5105590;28;20051;-78
2022/07/04 17:37:26;;;;;;;1.95;0.82;;;;;;;27.05;31.61;99041.38;5100874;28;20489;-77
2022/07/04 17:39:52;;;;;;;4.80;0.98;;;;;;;26.81;32.32;99022.69;5108336;28;20509;-78
2022/07/04 17:42:19;;;;;;;1.77;0.70;;;;;;;26.69;32.63;99032.59;5109890;28;20052;-78
2022/07/04 17:44:45;;;;;;;2.10;0.80;;;;;;;26.75;32.47;99043.41;5110930;28;20058;-77
2022/07/04 17:47:14;;;;;;;1.85;0.85;;;;;;;26.66;32.27;99037.63;5109984;27;20052;-77
2022/07/04 17:49:41;;;;;;;1.40;0.77;;;;;;;26.59;32.81;99047.44;5098608;27;20047;-77
